Date,TemperatureHighF,TemperatureAvgF,TemperatureLowF,DewpointHighF,DewpointAvgF,DewpointLowF,HumidityHigh,HumidityAvg,HumidityLow,PressureMaxIn,PressureMinIn,WindSpeedMaxMPH,WindSpeedAvgMPH,GustSpeedMaxMPH,PrecipitationSumIn
2013-7-1,102.0,80.1,61.7,71.0,63.8,58.7,90,61,28,30.04,29.93,7,0,7,0.00
2013-7-2,98.1,81.6,64.7,74.1,65.6,60.6,89,62,32,30.03,29.90,3,0,3,0.00
2013-7-3,92.0,76.3,59.6,67.5,54.8,25.6,92,53,23,30.01,29.89,5,0,5,0.59
2013-7-4,85.7,71.0,54.9,59.7,50.0,38.5,85,52,26,29.95,29.81,6,0,6,0.00
2013-7-5,83.4,69.2,53.6,57.9,50.4,40.3,87,55,25,29.90,29.80,5,0,5,0.00
2013-7-6,88.8,69.9,51.2,68.0,53.5,44.3,91,61,26,29.92,29.82,3,0,3,0.00
2013-7-7,90.3,71.0,50.5,67.3,51.1,39.7,92,56,25,29.90,29.80,3,0,3,0.00
2013-7-8,83.6,68.0,54.1,65.0,54.8,48.7,89,66,31,30.08,29.82,3,0,3,0.02
2013-7-9,92.0,71.4,54.5,65.9,53.8,40.9,90,60,22,30.13,30.00,6,0,6,0.00
2013-7-10,92.6,74.7,54.6,63.2,52.2,31.1,84,52,22,30.00,29.77,5,0,6,0.00
2013-7-11,83.6,70.0,52.7,58.3,43.0,21.1,81,42,12,29.88,29.78,8,0,8,0.21
2013-7-12,83.2,64.1,48.0,58.4,42.7,34.1,80,51,21,29.94,29.85,5,0,5,0.02
2013-7-13,79.3,69.4,54.1,55.7,46.2,38.1,79,47,26,30.11,29.94,3,0,6,0.19
2013-7-14,88.0,68.2,47.0,56.5,47.4,40.2,90,54,19,30.11,29.92,6,0,6,0.00
2013-7-15,90.7,69.9,48.9,54.5,45.3,34.9,88,49,16,29.98,29.92,3,0,3,0.00
2013-7-16,87.5,71.5,49.2,60.5,51.9,44.9,86,53,32,29.98,29.84,13,1,13,0.02
2013-7-17,93.5,76.4,62.5,66.3,58.2,50.7,83,57,25,30.06,29.84,7,0,7,0.17
2013-7-18,94.4,74.7,55.7,62.1,52.5,40.1,91,54,17,30.13,30.02,3,0,3,0.00
2013-7-19,99.5,76.1,55.2,63.1,52.4,41.3,87,51,16,30.07,29.92,5,0,5,0.00
2013-7-20,97.1,76.4,57.5,60.3,47.6,30.6,83,45,11,29.95,29.80,8,0,8,0.00
2013-7-21,95.0,74.4,50.1,64.4,47.1,41.0,81,45,16,29.87,29.77,5,0,6,0.00
2013-7-22,94.8,74.9,53.0,57.7,50.4,41.9,84,49,18,29.92,29.79,6,0,6,0.00
2013-7-23,100.7,77.5,55.1,61.4,51.1,40.7,82,47,16,30.01,29.92,3,0,8,0.00
2013-7-24,100.0,77.4,54.8,60.2,51.8,39.8,84,48,15,30.00,29.91,3,0,3,0.00
2013-7-25,98.8,77.0,56.0,61.7,51.1,37.1,82,47,14,30.03,29.95,7,0,7,0.00
2013-7-26,98.3,76.6,54.5,58.1,46.2,33.6,79,42,12,30.06,29.92,6,0,6,0.00
2013-7-27,91.5,72.5,51.4,54.3,42.7,32.1,79,40,14,29.99,29.84,6,0,6,0.00
2013-7-28,88.4,69.8,49.5,53.0,46.2,38.8,80,48,20,29.90,29.81,6,0,6,0.00
2013-7-29,89.4,69.4,50.8,55.8,48.6,41.4,88,53,20,29.94,29.85,2,0,3,0.00
2013-7-30,93.5,72.9,56.9,59.8,49.9,39.4,81,50,17,30.08,29.93,5,0,6,0.00
2013-7-31,89.2,72.1,56.9,55.8,50.5,44.0,77,50,27,30.10,29.94,7,0,7,0.00